Time;durP1;ratioP1;P1;durP2;ratioP2;P2;SDS_P1;SDS_P2;PMS_P1;PMS_P2;Temp;Humidity;BMP_temperature;BMP_pressure;BME280_temperature;BME280_humidity;BME280_pressure;Samples;Min_cycle;Max_cycle;Signal;HPM_P1;HPM_P2
2023/07/15 00:01:34;;;;;;;;;;;;;;;20.95;77.83;100763.34;20807306;28;19921;-60
2023/07/15 00:11:56;;;;;;;;;;;;;;;20.86;78.24;100750.00;20776468;28;19948;-60
2023/07/15 00:22:17;;;;;;;;;;;;;;;20.83;79.04;100742.34;20779540;28;20395;-60
2023/07/15 00:32:39;;;;;;;;;;;;;;;20.83;76.82;100737.09;20778715;28;19968;-59
2023/07/15 00:43:20;;;;;;;;;;;;;;;20.81;78.09;100725.84;20789971;28;19924;-60
2023/07/15 00:53:42;;;;;;;;;;;;;;;20.79;76.37;100710.19;20778442;28;19925;-60
2023/07/15 01:04:03;;;;;;;;;;;;;;;20.76;75.07;100689.38;20802422;28;19921;-60
2023/07/15 01:14:26;;;;;;;;;;;;;;;20.66;74.82;100667.31;20800267;28;20279;-60
2023/07/15 01:24:48;;;;;;;;;;;;;;;20.61;75.28;100661.56;20805024;28;19925;-59
2023/07/15 01:35:09;;;;;;;;;;;;;;;20.50;76.93;100658.91;20781077;28;20059;-60
2023/07/15 01:45:31;;;;;;;;;;;;;;;20.37;77.42;100637.09;20791080;28;20378;-60
2023/07/15 01:55:52;;;;;;;;;;;;;;;20.34;77.32;100632.06;20805513;28;19957;-60
2023/07/15 02:06:14;;;;;;;;;;;;;;;20.30;76.80;100609.56;20782894;28;19936;-59
2023/07/15 02:16:37;;;;;;;;;;;;;;;20.24;77.30;100614.41;20793090;28;19925;-60
2023/07/15 02:26:59;;;;;;;;;;;;;;;20.23;75.67;100597.00;20780774;28;19982;-61
2023/07/15 02:37:20;;;;;;;;;;;;;;;20.27;74.18;100594.03;20777170;28;19974;-60
2023/07/15 02:47:42;;;;;;;;;;;;;;;20.30;72.97;100574.56;20782701;28;19932;-60
2023/07/15 02:58:03;;;;;;;;;;;;;;;20.44;71.05;100575.19;20814702;28;19968;-60
2023/07/15 03:08:25;;;;;;;;;;;;;;;20.49;70.98;100573.06;20804848;28;20406;-60
2023/07/15 03:18:48;;;;;;;;;;;;;;;20.45;71.93;100569.00;20796488;28;19971;-60
2023/07/15 03:29:09;;;;;;;;;;;;;;;20.40;71.72;100563.22;20808684;28;20023;-60
2023/07/15 03:39:31;;;;;;;;;;;;;;;20.48;71.04;100554.78;20769871;28;19928;-60
2023/07/15 03:49:52;;;;;;;;;;;;;;;20.55;70.21;100554.19;20808653;28;19925;-59
2023/07/15 04:00:17;;;;;;;;;;;;;;;20.56;70.84;100540.13;20763587;28;19925;-60
2023/07/15 04:10:39;;;;;;;;;;;;;;;20.61;70.42;100551.13;20792335;28;19920;-60
2023/07/15 04:21:01;;;;;;;;;;;;;;;20.63;69.78;100545.72;20777315;28;20330;-59
2023/07/15 04:31:23;;;;;;;;;;;;;;;20.64;69.58;100544.75;20807093;28;19932;-60
2023/07/15 04:41:44;;;;;;;;;;;;;;;20.65;69.84;100557.81;20788619;28;20004;-60
2023/07/15 04:52:06;;;;;;;;;;;;;;;20.67;71.02;100553.28;20771066;28;19921;-60
2023/07/15 05:02:27;;;;;;;;;;;;;;;20.75;70.81;100558.78;20761679;28;20133;-59
2023/07/15 05:12:48;;;;;;;;;;;;;;;20.88;70.98;100559.53;20714062;28;19948;-60
2023/07/15 05:23:10;;;;;;;;;;;;;;;20.97;70.66;100566.72;20726056;28;19930;-60
2023/07/15 05:33:31;;;;;;;;;;;;;;;21.18;71.02;100566.03;20706253;28;20264;-60
2023/07/15 05:43:53;;;;;;;;;;;;;;;21.38;69.67;100562.66;20708548;28;19928;-60
2023/07/15 05:54:14;;;;;;;;;;;;;;;21.58;70.13;100575.94;20708734;28;19932;-60
2023/07/15 06:04:36;;;;;;;;;;;;;;;21.82;70.52;100583.72;20743414;28;19928;-60
2023/07/15 06:14:57;;;;;;;;;;;;;;;21.99;70.43;100591.09;20782674;28;19932;-60
2023/07/15 06:25:19;;;;;;;;;;;;;;;22.37;69.52;100585.31;20803274;28;20015;-60
2023/07/15 06:35:41;;;;;;;;;;;;;;;22.58;70.11;100573.84;20801490;28;19929;-61
2023/07/15 06:46:02;;;;;;;;;;;;;;;22.89;68.53;100565.00;20788233;28;19929;-60
2023/07/15 06:56:24;;;;;;;;;;;;;;;23.18;68.18;100556.41;20820237;28;19921;-60
2023/07/15 07:06:45;;;;;;;;;;;;;;;23.48;67.79;100546.66;20784838;28;19921;-60
2023/07/15 07:17:07;;;;;;;;;;;;;;;23.72;66.92;100554.22;20811820;28;19924;-60
2023/07/15 07:27:28;;;;;;;;;;;;;;;23.97;65.01;100547.59;20783051;28;19929;-59
2023/07/15 07:37:50;;;;;;;;;;;;;;;24.15;66.92;100554.72;20775874;28;19928;-59
2023/07/15 07:48:11;;;;;;;;;;;;;;;24.32;67.68;100551.38;20784343;28;19925;-58
2023/07/15 07:58:33;;;;;;;;;;;;;;;24.51;66.91;100564.59;20775300;28;19921;-60
2023/07/15 08:08:54;;;;;;;;;;;;;;;24.74;67.36;100558.00;20724467;28;20264;-75
2023/07/15 08:19:16;;;;;;;;;;;;;;;24.84;66.17;100563.28;20713683;28;20383;-61
2023/07/15 08:29:37;;;;;;;;;;;;;;;25.02;66.10;100577.44;20717097;28;19936;-62
2023/07/15 08:39:59;;;;;;;;;;;;;;;25.27;62.60;100586.59;20717634;28;19925;-61
2023/07/15 08:50:20;;;;;;;;;;;;;;;25.61;63.59;100596.50;20722728;28;20004;-61
2023/07/15 09:00:42;;;;;;;;;;;;;;;25.70;64.12;100584.16;20690536;28;19929;-61
2023/07/15 09:11:05;;;;;;;;;;;;;;;25.86;59.50;100584.31;20773177;28;19959;-61
2023/07/15 09:21:26;;;;;;;;;;;;;;;26.16;60.67;100580.50;20770566;28;19925;-58
2023/07/15 09:31:48;;;;;;;;;;;;;;;26.49;63.77;100588.63;20760487;28;20399;-59
2023/07/15 09:42:12;;;;;;;;;;;;;;;26.76;62.96;100598.31;20792128;28;19925;-59
2023/07/15 09:52:34;;;;;;;;;;;;;;;26.97;63.39;100613.91;20764909;28;19928;-59
2023/07/15 10:02:56;;;;;;;;;;;;;;;27.02;61.39;100623.06;20806408;28;19920;-59
2023/07/15 10:13:18;;;;;;;;;;;;;;;27.36;56.32;100628.47;20826387;28;19925;-59
2023/07/15 10:23:40;;;;;;;;;;;;;;;27.75;61.74;100627.78;20787015;28;19953;-59
2023/07/15 10:34:04;;;;;;;;;;;;;;;28.08;59.31;100633.22;20797465;28;19925;-59
2023/07/15 10:44:26;;;;;;;;;;;;;;;28.25;61.27;100646.44;20810386;28;19921;-59
2023/07/15 10:54:47;;;;;;;;;;;;;;;28.05;58.86;100658.38;20787567;28;20376;-60
2023/07/15 11:05:09;;;;;;;;;;;;;;;27.93;61.97;100650.84;20784291;28;20032;-61
2023/07/15 11:15:31;;;;;;;;;;;;;;;28.18;58.03;100650.75;20782469;28;19925;-58
2023/07/15 11:25:52;;;;;;;;;;;;;;;28.04;59.94;100642.56;20779295;28;20276;-60
2023/07/15 11:36:14;;;;;;;;;;;;;;;27.96;61.76;100639.88;20776996;28;20286;-60
2023/07/15 11:46:36;;;;;;;;;;;;;;;27.93;64.26;100640.19;20780363;28;19925;-59
2023/07/15 11:56:58;;;;;;;;;;;;;;;27.81;61.74;100631.63;20775476;28;20531;-60
2023/07/15 12:07:21;;;;;;;;;;;;;;;27.77;63.59;100609.00;20803824;28;20448;-59
2023/07/15 12:17:43;;;;;;;;;;;;;;;28.20;61.18;100600.00;20771748;28;19936;-61
2023/07/15 12:28:04;;;;;;;;;;;;;;;28.10;59.26;100600.13;20800734;28;19952;-59
2023/07/15 12:38:26;;;;;;;;;;;;;;;27.96;59.92;100587.47;20772863;28;19921;-59
2023/07/15 12:48:48;;;;;;;;;;;;;;;27.69;62.38;100593.00;20779212;28;20294;-61
2023/07/15 12:59:10;;;;;;;;;;;;;;;27.65;63.74;100586.38;20814251;28;19925;-59
2023/07/15 13:09:32;;;;;;;;;;;;;;;27.40;63.02;100580.09;20789722;28;19929;-60
2023/07/15 13:19:53;;;;;;;;;;;;;;;26.97;67.12;100580.19;20818702;28;19928;-60
2023/07/15 13:30:15;;;;;;;;;;;;;;;26.68;68.30;100569.03;20808062;28;19921;-59
2023/07/15 13:40:36;;;;;;;;;;;;;;;26.86;68.30;100579.63;20809340;28;19944;-60
2023/07/15 13:50:58;;;;;;;;;;;;;;;27.11;67.90;100562.81;20814242;28;19921;-59
2023/07/15 14:01:19;;;;;;;;;;;;;;;27.28;66.98;100556.59;20798850;28;20399;-60
2023/07/15 14:11:43;;;;;;;;;;;;;;;27.39;65.58;100543.91;20793424;28;19953;-60
2023/07/15 14:22:05;;;;;;;;;;;;;;;27.54;65.86;100520.19;20803942;28;19925;-60
2023/07/15 14:32:37;;;;;;;;;;;;;;;27.73;66.23;100522.53;20787519;28;19928;-60
2023/07/15 14:42:58;;;;;;;;;;;;;;;27.86;66.31;100477.66;20779248;28;19929;-60
2023/07/15 14:53:20;;;;;;;;;;;;;;;27.96;66.51;100470.38;20794321;28;20007;-59
2023/07/15 15:03:41;;;;;;;;;;;;;;;27.95;66.26;100463.38;20766726;28;19935;-59
2023/07/15 15:14:03;;;;;;;;;;;;;;;28.02;67.22;100469.69;20794060;28;20023;-59
2023/07/15 15:24:27;;;;;;;;;;;;;;;27.88;65.82;100466.84;20819381;28;19932;-59
2023/07/15 15:34:49;;;;;;;;;;;;;;;27.77;64.56;100466.19;20760203;28;19921;-60
2023/07/15 15:45:10;;;;;;;;;;;;;;;27.74;65.43;100471.00;20785147;28;21165;-60
2023/07/15 15:55:32;;;;;;;;;;;;;;;27.61;65.13;100450.22;20822091;28;19998;-61
2023/07/15 16:05:54;;;;;;;;;;;;;;;27.64;65.89;100465.84;20816376;28;20011;-61
2023/07/15 16:16:15;;;;;;;;;;;;;;;27.90;65.14;100460.38;20797223;28;19928;-61
2023/07/15 16:26:37;;;;;;;;;;;;;;;28.02;65.34;100468.91;20800154;28;19924;-60
2023/07/15 16:36:58;;;;;;;;;;;;;;;28.25;64.54;100446.75;20775500;28;19933;-60
2023/07/15 16:47:20;;;;;;;;;;;;;;;28.55;61.98;100435.38;20790115;28;19928;-60
2023/07/15 16:57:41;;;;;;;;;;;;;;;28.15;64.64;100447.94;20787855;28;19957;-59
2023/07/15 17:08:03;;;;;;;;;;;;;;;28.44;63.25;100453.53;20768833;28;19936;-62
2023/07/15 17:18:24;;;;;;;;;;;;;;;28.45;62.24;100444.53;20789493;28;19924;-61
2023/07/15 17:28:47;;;;;;;;;;;;;;;27.89;65.49;100453.41;20763466;28;20015;-60
2023/07/15 17:39:09;;;;;;;;;;;;;;;28.14;65.69;100447.09;20789845;28;19932;-61
2023/07/15 17:49:30;;;;;;;;;;;;;;;28.08;65.77;100447.75;20761632;28;19925;-61
2023/07/15 17:59:52;;;;;;;;;;;;;;;27.91;66.52;100430.09;20758409;28;20392;-61
2023/07/15 18:10:14;;;;;;;;;;;;;;;27.63;66.29;100442.06;20681891;28;20404;-61
2023/07/15 18:20:35;;;;;;;;;;;;;;;27.25;65.67;100434.66;20691271;28;19936;-60
2023/07/15 18:30:56;;;;;;;;;;;;;;;26.92;67.23;100414.28;20686151;28;19928;-60
2023/07/15 18:41:18;;;;;;;;;;;;;;;26.72;67.75;100433.13;20694415;28;20127;-60
2023/07/15 18:51:40;;;;;;;;;;;;;;;26.63;67.97;100436.69;20692935;28;20292;-60
2023/07/15 19:02:01;;;;;;;;;;;;;;;26.48;66.68;100477.28;20716493;28;20363;-60
2023/07/15 19:12:23;;;;;;;;;;;;;;;24.57;71.08;100590.50;20784753;28;19956;-60
2023/07/15 19:22:44;;;;;;;;;;;;;;;22.87;80.62;100611.81;20772285;28;19921;-60
2023/07/15 19:33:06;;;;;;;;;;;;;;;21.73;88.32;100647.66;20778430;28;19933;-61
2023/07/15 19:43:27;;;;;;;;;;;;;;;21.17;96.08;100631.00;20782343;28;19925;-62
2023/07/15 19:53:49;;;;;;;;;;;;;;;21.20;98.95;100653.63;20762194;28;19932;-62
2023/07/15 20:04:10;;;;;;;;;;;;;;;21.29;97.54;100679.25;20757117;28;19947;-62
2023/07/15 20:14:32;;;;;;;;;;;;;;;21.18;92.59;100687.97;20780816;28;19921;-61
2023/07/15 20:24:54;;;;;;;;;;;;;;;21.05;93.78;100699.53;20774328;28;19935;-62
2023/07/15 20:35:15;;;;;;;;;;;;;;;20.63;89.38;100775.38;20762712;28;19925;-63
2023/07/15 20:45:37;;;;;;;;;;;;;;;19.79;91.51;100766.50;20744674;28;20484;-61
2023/07/15 20:55:58;;;;;;;;;;;;;;;19.62;94.95;100768.59;20748334;28;19925;-59
2023/07/15 21:06:20;;;;;;;;;;;;;;;19.57;97.21;100766.28;20752655;28;19972;-59
2023/07/15 21:16:41;;;;;;;;;;;;;;;19.48;96.91;100782.66;20761416;28;20377;-59
2023/07/15 21:27:03;;;;;;;;;;;;;;;19.43;95.50;100778.66;20771174;28;20302;-58
2023/07/15 21:37:25;;;;;;;;;;;;;;;19.48;99.64;100819.41;20769211;28;20031;-58
2023/07/15 21:47:46;;;;;;;;;;;;;;;19.57;99.29;100781.19;20792858;28;19937;-61
2023/07/15 21:58:08;;;;;;;;;;;;;;;19.61;98.57;100756.41;20784762;28;19932;-59
2023/07/15 22:08:30;;;;;;;;;;;;;;;19.51;100.00;100740.44;20782997;28;19947;-59
2023/07/15 22:18:51;;;;;;;;;;;;;;;19.40;99.29;100778.84;20819905;28;20023;-59
2023/07/15 22:29:13;;;;;;;;;;;;;;;19.45;100.00;100782.03;20779061;28;19948;-59
2023/07/15 22:39:34;;;;;;;;;;;;;;;19.43;100.00;100804.91;20779252;28;19932;-59
2023/07/15 22:49:56;;;;;;;;;;;;;;;19.38;99.45;100823.59;20775889;28;19928;-59
2023/07/15 23:00:17;;;;;;;;;;;;;;;19.44;96.93;100841.56;20783283;28;20326;-59
2023/07/15 23:10:39;;;;;;;;;;;;;;;19.42;98.87;100876.72;20770919;28;20315;-59
2023/07/15 23:21:01;;;;;;;;;;;;;;;19.38;98.08;100883.09;20801009;28;19921;-59
2023/07/15 23:31:22;;;;;;;;;;;;;;;19.33;98.37;100869.44;20800768;28;19928;-59
2023/07/15 23:41:44;;;;;;;;;;;;;;;19.27;97.57;100862.78;20791557;28;19924;-59
2023/07/15 23:52:05;;;;;;;;;;;;;;;19.18;97.86;100841.53;20780489;28;19931;-59
